createdAt,value
2022-10-04T00:02:36.383Z,11.8
2022-10-04T00:04:43.039Z,11.7
2022-10-04T00:06:46.943Z,11.7
2022-10-04T00:08:50.890Z,11.7
2022-10-04T00:15:02.639Z,11.7
2022-10-04T00:19:13.292Z,11.7
2022-10-04T00:21:17.226Z,11.7
2022-10-04T00:23:21.114Z,11.8
2022-10-04T00:25:25.066Z,11.8
2022-10-04T00:27:28.998Z,11.7
2022-10-04T00:29:32.882Z,11.8
2022-10-04T00:31:36.871Z,11.7
2022-10-04T00:33:43.541Z,11.7
2022-10-04T00:35:47.465Z,11.7
2022-10-04T00:37:51.420Z,11.7
2022-10-04T00:50:17.857Z,11.7
2022-10-04T00:54:45.629Z,11.7
2022-10-04T00:56:49.561Z,11.7
2022-10-04T00:58:53.490Z,11.8
2022-10-04T01:01:00.309Z,11.8
2022-10-04T01:03:04.195Z,11.8
2022-10-04T01:05:08.088Z,11.8
2022-10-04T01:07:12.027Z,11.8
2022-10-04T01:09:15.947Z,11.8
2022-10-04T01:11:19.854Z,11.8
2022-10-04T01:13:23.809Z,11.8
2022-10-04T01:15:30.583Z,11.8
2022-10-04T01:17:34.474Z,11.8
2022-10-04T01:19:38.406Z,11.8
2022-10-04T01:21:42.609Z,11.7
2022-10-04T01:23:46.264Z,11.7
2022-10-04T01:25:50.168Z,11.8
2022-10-04T01:27:54.120Z,11.8
2022-10-04T01:30:00.870Z,11.7
2022-10-04T01:32:04.760Z,11.8
2022-10-04T01:34:08.682Z,11.7
2022-10-04T01:36:12.601Z,11.7
2022-10-04T01:38:16.533Z,11.7
2022-10-04T01:40:20.455Z,11.6
2022-10-04T01:42:24.365Z,11.6
2022-10-04T01:48:38.950Z,11.5
2022-10-04T01:49:42.324Z,11.4
2022-10-04T01:51:46.270Z,11.4
2022-10-04T02:02:08.354Z,11.4
2022-10-04T02:04:12.333Z,11.4
2022-10-04T02:06:16.179Z,11.4
2022-10-04T02:08:20.103Z,11.4
2022-10-04T02:10:24.005Z,11.4
2022-10-04T02:12:30.741Z,11.4
2022-10-04T02:18:42.476Z,11.4
2022-10-04T02:20:46.396Z,11.4
2022-10-04T02:22:50.303Z,11.4
2022-10-04T02:24:54.231Z,11.4
2022-10-04T02:27:00.968Z,11.4
2022-10-04T02:29:04.857Z,11.4
2022-10-04T02:31:08.868Z,11.3
2022-10-04T02:33:12.687Z,11.3
2022-10-04T02:35:16.595Z,11.2
2022-10-04T02:37:20.501Z,11.2
2022-10-04T02:41:31.132Z,10.9
2022-10-04T02:43:35.065Z,10.9
2022-10-04T02:46:42.384Z,10.9
2022-10-04T02:48:46.246Z,10.8
2022-10-04T02:50:50.126Z,10.8
2022-10-04T02:52:54.042Z,10.7
2022-10-04T02:55:00.785Z,10.7
2022-10-04T02:57:04.674Z,10.7
2022-10-04T02:59:08.628Z,10.6
2022-10-04T03:01:12.620Z,10.6
2022-10-04T03:03:16.432Z,10.6
2022-10-04T03:05:20.424Z,10.5
2022-10-04T03:07:24.231Z,10.5
2022-10-04T03:09:30.955Z,10.6
2022-10-04T03:11:34.851Z,10.7
2022-10-04T03:15:42.725Z,11
2022-10-04T03:19:50.430Z,11.1
2022-10-04T03:24:01.054Z,11.2
2022-10-04T03:28:08.888Z,11.2
2022-10-04T03:32:16.671Z,11.2
2022-10-04T03:34:20.576Z,11.1
2022-10-04T03:38:31.211Z,11
2022-10-04T03:40:35.106Z,11
2022-10-04T03:42:39.024Z,11
2022-10-04T03:47:50.211Z,10.8
2022-10-04T03:49:54.114Z,10.7
2022-10-04T03:52:00.831Z,10.6
2022-10-04T03:54:04.741Z,10.6
2022-10-04T03:56:08.629Z,10.6
2022-10-04T03:58:12.558Z,10.7
2022-10-04T04:00:16.471Z,10.7
2022-10-04T04:10:38.808Z,10.5
2022-10-04T04:12:44.218Z,10.5
2022-10-04T04:14:48.063Z,10.4
2022-10-04T04:16:51.987Z,10.4
2022-10-04T04:18:55.864Z,10.4
2022-10-04T04:21:02.579Z,10.4
2022-10-04T04:27:14.297Z,10.2
2022-10-04T04:31:22.147Z,10.1
2022-10-04T04:35:32.697Z,10
2022-10-04T04:37:36.602Z,10.1
2022-10-04T04:39:40.490Z,10.1
2022-10-04T04:42:02.493Z,10
2022-10-04T04:44:06.364Z,10
2022-10-04T04:46:26.682Z,10.1
2022-10-04T04:48:16.985Z,10.1
2022-10-04T04:50:20.890Z,10.1
2022-10-04T04:54:28.698Z,10.1
2022-10-04T04:56:32.566Z,10.1
2022-10-04T05:00:40.390Z,10.1
2022-10-04T05:02:47.035Z,10
2022-10-04T05:04:50.959Z,10
2022-10-04T05:06:54.849Z,10
2022-10-04T05:08:58.799Z,9.9
2022-10-04T05:11:02.666Z,9.9
2022-10-04T05:17:17.246Z,9.9
2022-10-04T05:23:28.892Z,9.9
2022-10-04T05:25:32.805Z,9.9
2022-10-04T05:27:36.674Z,9.9
2022-10-04T05:29:40.559Z,9.9
2022-10-04T05:31:47.307Z,9.9
2022-10-04T05:33:51.169Z,9.8
2022-10-04T05:35:55.133Z,9.7
2022-10-04T05:36:58.486Z,9.8
2022-10-04T05:39:02.355Z,9.8
2022-10-04T05:41:06.250Z,9.8
2022-10-04T05:43:10.167Z,9.8
2022-10-04T05:45:16.843Z,9.8
2022-10-04T05:47:20.726Z,9.8
2022-10-04T05:49:24.617Z,9.7
2022-10-04T05:51:28.487Z,9.8
2022-10-04T05:53:32.384Z,9.8
2022-10-04T05:55:36.283Z,9.8
2022-10-04T05:57:40.151Z,9.8
2022-10-04T05:59:46.849Z,9.7
2022-10-04T06:01:50.818Z,9.8
2022-10-04T06:08:02.405Z,9.8
2022-10-04T06:12:10.181Z,9.7
2022-10-04T06:14:16.859Z,9.7
2022-10-04T06:20:28.506Z,9.7
2022-10-04T06:26:40.169Z,9.9
2022-10-04T06:28:46.850Z,10
2022-10-04T06:30:50.779Z,10
2022-10-04T06:32:54.625Z,10
2022-10-04T06:33:57.953Z,10
2022-10-04T06:40:09.630Z,10.1
2022-10-04T06:42:16.327Z,10.1
2022-10-04T06:44:20.210Z,10.1
2022-10-04T06:46:24.164Z,10.1
2022-10-04T06:48:28.033Z,10.1
2022-10-04T06:50:31.921Z,10.1
2022-10-04T06:54:39.686Z,10.2
2022-10-04T07:02:58.128Z,10.3
2022-10-04T07:05:08.834Z,10.3
2022-10-04T07:13:20.310Z,10.6
2022-10-04T07:15:24.207Z,10.8
2022-10-04T07:17:28.077Z,10.9
2022-10-04T07:19:31.978Z,11
2022-10-04T07:23:39.759Z,11.2
2022-10-04T07:25:46.466Z,11.8
2022-10-04T07:27:50.419Z,12.3
2022-10-04T07:29:54.279Z,12.6
2022-10-04T07:30:57.706Z,13.7
2022-10-04T07:33:01.535Z,14.7
2022-10-04T07:35:05.438Z,16.8
2022-10-04T07:37:09.368Z,15.3
2022-10-04T07:39:16.073Z,13.1
2022-10-04T07:41:19.984Z,12.8
2022-10-04T07:43:23.890Z,12.7
2022-10-04T07:45:30.000Z,12.6
2022-10-04T07:47:31.728Z,12.7
2022-10-04T07:49:35.639Z,12.8
2022-10-04T07:51:39.903Z,12.9
2022-10-04T07:55:50.195Z,13.3
2022-10-04T07:57:54.128Z,13.5
2022-10-04T07:59:58.047Z,13.4
2022-10-04T08:02:02.101Z,14.1
2022-10-04T08:04:05.912Z,14.6
2022-10-04T08:06:09.839Z,14.1
2022-10-04T08:08:16.587Z,16
2022-10-04T08:10:20.612Z,16.9
2022-10-04T08:12:24.445Z,17.5
2022-10-04T08:14:28.399Z,18
2022-10-04T08:16:32.331Z,19
2022-10-04T08:20:40.200Z,18.9
2022-10-04T08:22:46.950Z,19.8
2022-10-04T08:24:53.463Z,19.8
2022-10-04T08:29:18.485Z,18.9
2022-10-04T08:31:22.601Z,18.9
2022-10-04T08:33:26.384Z,19.4
2022-10-04T08:35:33.178Z,17.5
2022-10-04T08:37:37.090Z,17.3
2022-10-04T08:39:41.017Z,17.9
2022-10-04T08:41:44.948Z,17.7
2022-10-04T08:43:48.903Z,17.4
2022-10-04T08:45:52.968Z,17.5
2022-10-04T08:47:56.760Z,17.9
2022-10-04T08:50:03.540Z,17.7
2022-10-04T08:52:07.457Z,17.4
2022-10-04T08:54:11.408Z,17.2
2022-10-04T08:56:15.343Z,17.2
2022-10-04T08:58:19.287Z,16.9
2022-10-04T09:00:23.234Z,17.2
2022-10-04T09:02:27.204Z,16.6
2022-10-04T09:04:33.925Z,19.4
2022-10-04T09:06:37.864Z,19.3
2022-10-04T09:08:41.808Z,19.2
2022-10-04T09:10:45.743Z,19.5
2022-10-04T09:12:49.685Z,19.8
2022-10-04T09:14:53.629Z,20.1
2022-10-04T09:16:57.592Z,19.6
2022-10-04T09:19:04.338Z,21.1
2022-10-04T09:21:08.279Z,21.6
2022-10-04T09:23:12.211Z,20.6
2022-10-04T09:24:15.597Z,20.4
2022-10-04T09:26:19.520Z,20.7
2022-10-04T09:28:23.493Z,20.8
2022-10-04T09:30:27.390Z,21.3
2022-10-04T09:34:38.102Z,21.4
2022-10-04T09:40:49.911Z,20.9
2022-10-04T09:44:57.755Z,21.5
2022-10-04T09:47:04.523Z,21.3
2022-10-04T09:49:08.440Z,21.3
2022-10-04T09:51:12.391Z,21.8
2022-10-04T09:55:20.227Z,21.4
2022-10-04T09:59:28.090Z,21.4
2022-10-04T10:03:38.778Z,21.6
2022-10-04T10:09:52.068Z,22.9
2022-10-04T10:11:55.966Z,22.6
2022-10-04T10:13:59.889Z,23.2
2022-10-04T10:18:10.563Z,23.2
2022-10-04T10:20:14.484Z,22.7
2022-10-04T10:21:17.870Z,22.4
2022-10-04T10:23:21.793Z,22.2
2022-10-04T10:25:25.722Z,22.4
2022-10-04T10:27:29.628Z,22.1
2022-10-04T10:29:36.413Z,23.1
2022-10-04T10:31:42.658Z,22.9
2022-10-04T10:35:48.141Z,22.8
2022-10-04T10:41:59.891Z,22.5
2022-10-04T10:46:10.609Z,23.6
2022-10-04T10:48:14.489Z,23.7
2022-10-04T10:50:18.404Z,23.8
2022-10-04T10:52:22.317Z,22.7
2022-10-04T10:54:26.225Z,22.8
2022-10-04T10:56:30.435Z,22.6
2022-10-04T11:00:40.804Z,22.3
2022-10-04T11:02:49.539Z,22.8
2022-10-04T11:04:48.600Z,22.6
2022-10-04T11:06:52.528Z,23.8
2022-10-04T11:08:56.419Z,22.3
2022-10-04T11:11:00.354Z,22.1
2022-10-04T11:13:07.108Z,23
2022-10-04T11:15:10.992Z,23
2022-10-04T11:17:14.913Z,22.2
2022-10-04T11:20:22.193Z,21.6
2022-10-04T11:24:29.999Z,21.6
2022-10-04T11:26:36.744Z,22.2
2022-10-04T11:30:44.577Z,22.4
2022-10-04T11:32:48.472Z,23.7
2022-10-04T11:34:52.388Z,23.4
2022-10-04T11:36:56.285Z,23.3
2022-10-04T11:39:00.204Z,22.5
2022-10-04T11:41:06.927Z,21.9
2022-10-04T11:43:10.850Z,22.3
2022-10-04T11:45:14.749Z,23.2
2022-10-04T11:47:18.646Z,22.8
2022-10-04T11:49:22.573Z,22.9
2022-10-04T11:51:26.474Z,24
2022-10-04T11:53:30.365Z,24.2
2022-10-04T11:55:37.146Z,23.9
2022-10-04T11:57:41.048Z,24.3
2022-10-04T11:59:44.948Z,24.4
2022-10-04T12:01:48.868Z,22.3
2022-10-04T12:03:53.013Z,20.4
2022-10-04T12:05:56.663Z,20.1
2022-10-04T12:08:00.557Z,20
2022-10-04T12:10:07.395Z,19.8
2022-10-04T12:12:11.215Z,19.8
2022-10-04T12:14:15.116Z,19.7
2022-10-04T12:20:50.559Z,19.6
2022-10-04T12:22:57.312Z,20.2
2022-10-04T12:25:01.226Z,20.2
2022-10-04T12:27:05.167Z,19.9
2022-10-04T12:29:09.054Z,19.6
2022-10-04T12:31:13.027Z,19.2
2022-10-04T12:35:20.832Z,18.7
2022-10-04T12:37:27.563Z,18.8
2022-10-04T12:39:31.501Z,18.8
2022-10-04T12:43:39.350Z,19.4
2022-10-04T12:45:43.359Z,19.6
2022-10-04T12:47:47.206Z,19.4
2022-10-04T12:49:51.151Z,19.7
2022-10-04T12:51:58.041Z,19.7
2022-10-04T12:54:01.830Z,19.5
2022-10-04T12:56:05.774Z,19.2
2022-10-04T12:58:09.697Z,18.8
2022-10-04T13:00:13.621Z,18.7
2022-10-04T13:02:17.686Z,18.8
2022-10-04T13:04:21.495Z,19
2022-10-04T13:10:36.139Z,19.5
2022-10-04T13:11:39.515Z,19.6
2022-10-04T13:13:43.476Z,19.6
2022-10-04T13:22:02.055Z,18.9
2022-10-04T13:24:05.960Z,19.1
2022-10-04T13:26:09.894Z,19.2
2022-10-04T13:28:13.853Z,19.3
2022-10-04T13:30:17.766Z,19.2
2022-10-04T13:34:28.485Z,19
2022-10-04T13:44:48.179Z,19.5
2022-10-04T13:46:52.114Z,19.4
2022-10-04T13:51:02.837Z,19.5
2022-10-04T13:53:06.781Z,19.4
2022-10-04T13:55:10.715Z,19.6
2022-10-04T13:57:14.659Z,19.3
2022-10-04T13:59:18.595Z,19.3
2022-10-04T14:01:22.581Z,19.4
2022-10-04T14:03:29.350Z,19.3
2022-10-04T14:05:33.231Z,19.4
2022-10-04T14:07:37.185Z,19.3
2022-10-04T14:08:40.541Z,19.1
2022-10-04T14:12:48.416Z,19.1
2022-10-04T14:14:52.360Z,19.1
2022-10-04T14:16:59.198Z,19.2
2022-10-04T14:21:07.001Z,19
2022-10-04T14:23:10.944Z,19.1
2022-10-04T14:25:20.310Z,19.2
2022-10-04T14:27:18.810Z,18.9
2022-10-04T14:31:31.141Z,18.8
2022-10-04T14:35:37.392Z,18.6
2022-10-04T14:37:41.321Z,18.7
2022-10-04T14:39:45.261Z,18.7
2022-10-04T14:41:49.228Z,18.7
2022-10-04T14:43:53.146Z,18.7
2022-10-04T14:46:00.714Z,18.8
2022-10-04T14:48:04.587Z,18.9
2022-10-04T14:54:16.417Z,19
2022-10-04T14:56:20.347Z,18.7
2022-10-04T14:58:24.302Z,18.6
2022-10-04T15:00:31.055Z,18.5
2022-10-04T15:02:35.003Z,18.4
2022-10-04T15:04:39.202Z,18.4
2022-10-04T15:09:50.219Z,18.4
2022-10-04T15:14:00.918Z,18.4
2022-10-04T15:20:12.777Z,18.4
2022-10-04T15:22:16.728Z,18.5
2022-10-04T15:24:20.664Z,18.4
2022-10-04T15:26:24.618Z,18.4
2022-10-04T15:28:31.426Z,18.4
2022-10-04T15:30:35.337Z,18.4
2022-10-04T15:32:39.281Z,18.4
2022-10-04T15:34:43.240Z,18.4
2022-10-04T15:36:47.652Z,18.4
2022-10-04T15:38:51.141Z,18.4
2022-10-04T15:43:01.863Z,18.2
2022-10-04T15:45:05.831Z,18.2
2022-10-04T15:47:09.792Z,18.3
2022-10-04T15:49:13.744Z,18.3
2022-10-04T15:51:17.658Z,18.3
2022-10-04T15:53:21.613Z,18.3
2022-10-04T15:55:25.576Z,18.3
2022-10-04T15:57:32.337Z,18.3
2022-10-04T15:59:36.310Z,18.2
2022-10-04T16:01:40.317Z,18.2
2022-10-04T16:04:10.287Z,18
2022-10-04T16:06:15.353Z,18
2022-10-04T16:08:19.260Z,17.9
2022-10-04T16:10:26.041Z,17.7
2022-10-04T16:12:29.976Z,17.7
2022-10-04T16:14:33.918Z,17.6
2022-10-04T16:16:37.878Z,17.5
2022-10-04T16:18:41.834Z,17.4
2022-10-04T16:20:45.764Z,17.3
2022-10-04T16:22:49.716Z,17.2
2022-10-04T16:24:56.500Z,17.2
2022-10-04T16:27:00.431Z,17.1
2022-10-04T16:29:04.364Z,17.1
2022-10-04T16:31:08.380Z,17
2022-10-04T16:33:12.298Z,16.9
2022-10-04T16:35:16.219Z,16.9
2022-10-04T16:37:20.183Z,16.8
2022-10-04T16:39:26.942Z,16.7
2022-10-04T16:41:30.898Z,16.7
2022-10-04T16:43:34.844Z,16.7
2022-10-04T16:45:38.846Z,16.6
2022-10-04T16:47:42.756Z,16.5
2022-10-04T16:49:46.705Z,16.5
2022-10-04T16:51:50.654Z,16.5
2022-10-04T16:53:57.431Z,16.3
2022-10-04T16:56:01.367Z,16.3
2022-10-04T16:58:05.322Z,16.2
2022-10-04T16:59:08.703Z,16.2
2022-10-04T17:01:12.707Z,16.1
2022-10-04T17:03:16.629Z,16.1
2022-10-04T17:05:20.581Z,16
2022-10-04T17:07:27.344Z,15.9
2022-10-04T17:09:31.297Z,15.9
2022-10-04T17:11:35.243Z,15.9
2022-10-04T17:13:39.179Z,15.8
2022-10-04T17:15:43.192Z,15.8
2022-10-04T17:17:47.130Z,15.8
2022-10-04T17:19:52.846Z,15.8
2022-10-04T17:24:01.766Z,15.8
2022-10-04T17:28:09.699Z,15.8
2022-10-04T17:30:13.602Z,15.9
2022-10-04T17:32:17.754Z,15.8
2022-10-04T17:34:21.494Z,15.8
2022-10-04T17:36:28.275Z,15.7
2022-10-04T17:42:40.112Z,15.6
2022-10-04T17:44:44.076Z,15.6
2022-10-04T17:46:48.584Z,15.6
2022-10-04T17:48:51.995Z,15.6
2022-10-04T17:50:58.773Z,15.5
2022-10-04T17:53:02.711Z,15.6
2022-10-04T17:55:06.665Z,15.5
2022-10-04T17:56:10.049Z,15.6
2022-10-04T18:02:21.966Z,15.5
2022-10-04T18:04:28.748Z,15.5
2022-10-04T18:06:32.631Z,15.5
2022-10-04T18:10:40.515Z,15.5
2022-10-04T18:14:48.409Z,15.5
2022-10-04T18:21:03.078Z,15.5
2022-10-04T18:23:07.032Z,15.5
2022-10-04T18:25:10.981Z,15.5
2022-10-04T18:27:14.907Z,15.5
2022-10-04T18:29:18.867Z,15.5
2022-10-04T18:31:22.877Z,15.6
2022-10-04T18:33:29.571Z,15.5
2022-10-04T18:39:41.414Z,15.5
2022-10-04T18:41:45.362Z,15.5
2022-10-04T18:43:49.328Z,15.6
2022-10-04T18:45:53.240Z,15.6
2022-10-04T18:48:00.045Z,15.6
2022-10-04T18:52:07.896Z,15.7
2022-10-04T18:55:15.248Z,15.6
2022-10-04T18:57:19.214Z,15.6
2022-10-04T18:59:23.136Z,15.6
2022-10-04T19:07:41.825Z,15.8
2022-10-04T19:09:45.760Z,15.8
2022-10-04T19:11:49.713Z,15.9
2022-10-04T19:13:53.665Z,15.9
2022-10-04T19:16:00.475Z,16
2022-10-04T19:20:08.328Z,16
2022-10-04T19:22:12.816Z,16
2022-10-04T19:24:16.742Z,16
2022-10-04T19:26:32.009Z,16
2022-10-04T19:28:24.752Z,16
2022-10-04T19:30:31.421Z,16
2022-10-04T19:32:35.356Z,16
2022-10-04T19:34:39.310Z,16
2022-10-04T19:36:43.657Z,16
2022-10-04T19:38:47.233Z,16
2022-10-04T19:40:51.173Z,16
2022-10-04T19:42:55.138Z,16
2022-10-04T19:45:01.897Z,16
2022-10-04T19:47:05.841Z,16
2022-10-04T19:49:09.812Z,16
2022-10-04T19:59:58.134Z,16
2022-10-04T20:02:02.139Z,16.1
2022-10-04T20:04:06.040Z,16.1
2022-10-04T20:12:24.671Z,16.1
2022-10-04T20:14:28.633Z,16.1
2022-10-04T20:16:32.646Z,16
2022-10-04T20:18:36.515Z,16
2022-10-04T20:20:40.467Z,16
2022-10-04T20:22:44.399Z,16
2022-10-04T20:33:06.962Z,16
2022-10-04T20:37:14.892Z,16
2022-10-04T20:41:25.600Z,16
2022-10-04T20:43:29.544Z,16
2022-10-04T20:46:36.935Z,16
2022-10-04T20:48:40.838Z,16
2022-10-04T20:50:44.810Z,15.9
2022-10-04T20:52:48.750Z,15.9
2022-10-04T20:54:55.551Z,15.9
2022-10-04T20:56:59.489Z,15.9
2022-10-04T20:59:03.430Z,15.9
2022-10-04T21:01:07.452Z,15.9
2022-10-04T21:03:11.364Z,15.9
2022-10-04T21:05:15.313Z,15.9
2022-10-04T21:07:19.246Z,15.9
2022-10-04T21:09:26.044Z,15.9
2022-10-04T21:11:29.975Z,15.9
2022-10-04T21:13:33.953Z,15.9
2022-10-04T21:15:37.921Z,15.9
2022-10-04T21:17:41.837Z,15.9
2022-10-04T21:19:45.798Z,15.9
2022-10-04T21:21:49.755Z,15.9
2022-10-04T21:23:56.528Z,15.9
2022-10-04T21:26:00.465Z,15.9
2022-10-04T21:28:04.476Z,15.8
2022-10-04T21:32:12.482Z,15.8
2022-10-04T21:34:34.594Z,15.8
2022-10-04T21:45:42.312Z,15.8
2022-10-04T21:47:46.188Z,15.8
2022-10-04T21:49:50.149Z,15.7
2022-10-04T21:51:56.934Z,15.7
2022-10-04T21:54:00.883Z,15.7
2022-10-04T21:56:04.829Z,15.7
2022-10-04T21:58:08.797Z,15.7
2022-10-04T22:00:12.750Z,15.7
2022-10-04T22:02:16.731Z,15.7
2022-10-04T22:04:22.136Z,15.7
2022-10-04T22:06:28.879Z,15.7
2022-10-04T22:08:32.817Z,15.7
2022-10-04T22:10:36.757Z,15.6
2022-10-04T22:12:40.715Z,15.7
2022-10-04T22:14:44.661Z,15.7
2022-10-04T22:16:49.239Z,15.7
2022-10-04T22:18:52.567Z,15.7
2022-10-04T22:20:59.332Z,15.7
2022-10-04T22:23:03.288Z,15.7
2022-10-04T22:25:07.242Z,15.7
2022-10-04T22:27:11.197Z,15.7
2022-10-04T22:29:15.148Z,15.7
2022-10-04T22:31:19.216Z,15.6
2022-10-04T22:33:23.077Z,15.7
2022-10-04T22:35:29.856Z,15.6
2022-10-04T22:37:33.796Z,15.6
2022-10-04T22:39:37.754Z,15.6
2022-10-04T22:40:41.120Z,15.6
2022-10-04T22:42:45.088Z,15.6
2022-10-04T22:44:50.018Z,15.6
2022-10-04T22:46:53.964Z,15.6
2022-10-04T22:49:00.807Z,15.6
2022-10-04T22:51:04.685Z,15.6
2022-10-04T22:53:08.661Z,15.6
2022-10-04T22:55:12.591Z,15.6
2022-10-04T22:57:16.537Z,15.5
2022-10-04T22:59:20.508Z,15.5
2022-10-04T23:03:31.250Z,15.6
2022-10-04T23:05:35.161Z,15.5
2022-10-04T23:07:39.107Z,15.5
2022-10-04T23:11:47.018Z,15.5
2022-10-04T23:15:54.990Z,15.5
2022-10-04T23:18:01.659Z,15.4
2022-10-04T23:20:05.621Z,15.4
2022-10-04T23:26:17.471Z,15.3
2022-10-04T23:28:21.467Z,15.3
2022-10-04T23:30:25.412Z,15.3
2022-10-04T23:32:32.130Z,15.3
2022-10-04T23:34:36.116Z,15.3
2022-10-04T23:36:40.061Z,15.3
2022-10-04T23:39:02.110Z,15.3
2022-10-04T23:41:06.025Z,15.2
2022-10-04T23:43:09.937Z,15.3
2022-10-04T23:45:16.714Z,15.3
2022-10-04T23:47:20.770Z,15.3
2022-10-04T23:49:24.615Z,15.3
2022-10-04T23:51:28.574Z,15.3
2022-10-04T23:53:32.508Z,15.3
2022-10-04T23:55:36.473Z,15.3
2022-10-04T23:57:40.398Z,15.3
2022-10-04T23:59:47.175Z,15.3
